createdAt,value
2018-07-21T00:00:18.524Z,14.57
2018-07-21T00:02:47.705Z,13.90
2018-07-21T00:05:16.859Z,13.45
2018-07-21T00:07:46.006Z,13.43
2018-07-21T00:10:15.186Z,14.80
2018-07-21T00:12:44.505Z,14.40
2018-07-21T00:15:13.660Z,13.27
2018-07-21T00:17:43.458Z,14.03
2018-07-21T00:20:12.629Z,14.17
2018-07-21T00:22:41.802Z,14.50
2018-07-21T00:25:11.206Z,14.45
2018-07-21T00:27:40.358Z,14.70
2018-07-21T00:30:09.559Z,13.50
2018-07-21T00:32:38.739Z,12.77
2018-07-21T00:35:08.138Z,13.00
2018-07-21T00:37:37.347Z,13.77
2018-07-21T00:40:06.530Z,13.00
2018-07-21T00:42:35.710Z,14.37
2018-07-21T00:45:05.137Z,13.73
2018-07-21T00:47:34.354Z,14.60
2018-07-21T00:50:03.622Z,15.03
2018-07-21T00:52:32.805Z,14.50
2018-07-21T00:55:01.999Z,14.50
2018-07-21T00:57:31.659Z,14.90
2018-07-21T01:00:00.861Z,15.10
2018-07-21T01:02:30.086Z,17.23
2018-07-21T01:04:59.232Z,14.63
2018-07-21T01:07:28.421Z,14.58
2018-07-21T01:09:57.664Z,16.23
2018-07-21T01:12:26.817Z,16.70
2018-07-21T01:14:56.008Z,15.40
2018-07-21T01:17:25.184Z,14.93
2018-07-21T01:19:54.369Z,14.33
2018-07-21T01:22:23.533Z,15.50
2018-07-21T01:24:52.717Z,13.57
2018-07-21T01:27:21.918Z,15.70
2018-07-21T01:29:51.206Z,15.17
2018-07-21T01:32:20.366Z,14.50
2018-07-21T01:34:49.577Z,14.87
2018-07-21T01:37:18.718Z,14.60
2018-07-21T01:39:47.902Z,14.47
2018-07-21T01:42:17.067Z,14.53
2018-07-21T01:44:46.230Z,15.70
2018-07-21T01:47:15.390Z,15.45
2018-07-21T01:49:44.517Z,15.00
2018-07-21T01:52:15.230Z,16.30
2018-07-21T01:54:44.444Z,15.90
2018-07-21T01:57:14.393Z,17.20
2018-07-21T01:59:43.597Z,16.97
2018-07-21T02:02:12.864Z,16.10
2018-07-21T02:04:42.062Z,16.23
2018-07-21T02:07:11.885Z,15.90
2018-07-21T02:09:41.053Z,15.50
2018-07-21T02:12:10.288Z,18.00
2018-07-21T02:14:39.418Z,15.40
2018-07-21T02:17:08.751Z,16.27
2018-07-21T02:19:37.866Z,15.80
2018-07-21T02:22:07.061Z,16.45
2018-07-21T02:24:36.205Z,15.20
2018-07-21T02:27:05.401Z,16.80
2018-07-21T02:29:34.570Z,17.70
2018-07-21T02:32:03.760Z,15.47
2018-07-21T02:34:32.899Z,16.00
2018-07-21T02:37:02.085Z,16.20
2018-07-21T02:39:31.249Z,17.30
2018-07-21T02:42:00.448Z,16.27
2018-07-21T02:44:29.934Z,16.83
2018-07-21T02:46:59.117Z,16.70
2018-07-21T02:49:28.261Z,16.17
2018-07-21T02:51:57.430Z,16.63
2018-07-21T02:54:26.605Z,16.67
2018-07-21T02:56:55.751Z,16.80
2018-07-21T02:59:24.902Z,16.60
2018-07-21T03:01:54.053Z,17.30
2018-07-21T03:04:23.222Z,15.83
2018-07-21T03:06:52.357Z,15.67
2018-07-21T03:09:21.492Z,17.40
2018-07-21T03:11:50.643Z,17.60
2018-07-21T03:14:19.806Z,17.87
2018-07-21T03:16:49.723Z,17.30
2018-07-21T03:19:18.841Z,17.25
2018-07-21T03:21:48.001Z,16.53
2018-07-21T03:24:17.178Z,16.53
2018-07-21T03:26:46.322Z,16.33
2018-07-21T03:29:15.454Z,17.07
2018-07-21T03:31:44.630Z,17.80
2018-07-21T03:34:13.749Z,17.83
2018-07-21T03:36:42.892Z,17.53
2018-07-21T03:39:12.728Z,18.90
2018-07-21T03:41:41.879Z,18.20
2018-07-21T03:44:11.049Z,17.63
2018-07-21T03:46:40.233Z,17.27
2018-07-21T03:49:09.433Z,17.03
2018-07-21T03:51:38.570Z,18.40
2018-07-21T03:54:08.083Z,17.93
2018-07-21T03:56:37.251Z,17.87
2018-07-21T03:59:06.389Z,19.23
2018-07-21T04:01:35.557Z,19.00
2018-07-21T04:04:04.722Z,17.50
2018-07-21T04:06:33.898Z,18.50
2018-07-21T04:09:03.418Z,19.50
2018-07-21T04:11:32.550Z,19.00
2018-07-21T04:14:01.704Z,18.50
2018-07-21T04:16:30.957Z,18.30
2018-07-21T04:19:00.199Z,19.87
2018-07-21T04:21:29.353Z,19.82
2018-07-21T04:23:58.543Z,19.40
2018-07-21T04:26:27.688Z,18.77
2018-07-21T04:28:56.878Z,19.20
2018-07-21T04:31:26.148Z,18.43
2018-07-21T04:33:55.583Z,17.47
2018-07-21T04:36:25.069Z,19.33
2018-07-21T04:38:54.258Z,18.30
2018-07-21T04:41:23.402Z,19.95
2018-07-21T04:43:52.562Z,18.63
2018-07-21T04:46:21.739Z,18.73
2018-07-21T04:48:50.973Z,17.97
2018-07-21T04:51:20.114Z,18.90
2018-07-21T04:53:49.287Z,17.23
2018-07-21T04:56:18.434Z,19.27
2018-07-21T04:58:47.613Z,18.63
2018-07-21T05:01:16.781Z,19.83
2018-07-21T05:03:45.929Z,19.50
2018-07-21T05:06:15.076Z,20.52
2018-07-21T05:08:44.218Z,20.70
2018-07-21T05:11:13.381Z,19.90
2018-07-21T05:13:42.563Z,21.53
2018-07-21T05:16:11.713Z,20.07
2018-07-21T05:18:40.862Z,19.67
2018-07-21T05:21:11.030Z,19.75
2018-07-21T05:23:40.228Z,21.10
2018-07-21T05:26:09.501Z,19.93
2018-07-21T05:28:38.899Z,20.02
2018-07-21T05:31:08.471Z,21.47
2018-07-21T05:33:37.591Z,19.87
2018-07-21T05:36:06.803Z,20.12
2018-07-21T05:38:37.506Z,19.93
2018-07-21T05:41:06.724Z,19.93
2018-07-21T05:43:35.993Z,21.40
2018-07-21T05:46:05.172Z,21.40
2018-07-21T05:48:34.338Z,20.13
2018-07-21T05:51:03.543Z,20.63
2018-07-21T05:53:32.745Z,20.70
2018-07-21T05:56:01.889Z,22.10
2018-07-21T05:58:31.042Z,21.55
2018-07-21T06:01:00.229Z,20.60
2018-07-21T06:03:29.427Z,20.03
2018-07-21T06:05:58.652Z,19.60
2018-07-21T06:08:27.832Z,20.60
2018-07-21T06:10:57.055Z,19.10
2018-07-21T06:13:27.052Z,19.30
2018-07-21T06:15:56.245Z,19.83
2018-07-21T06:18:25.394Z,22.20
2018-07-21T06:20:54.666Z,19.90
2018-07-21T06:23:23.814Z,20.55
2018-07-21T06:25:52.981Z,19.03
2018-07-21T06:28:22.129Z,19.40
2018-07-21T06:30:51.373Z,19.67
2018-07-21T06:33:20.527Z,19.25
2018-07-21T06:35:49.709Z,17.83
2018-07-21T06:38:18.897Z,18.13
2018-07-21T06:40:48.093Z,17.90
2018-07-21T06:43:17.259Z,20.02
2018-07-21T06:45:46.454Z,19.63
2018-07-21T06:48:15.709Z,16.43
2018-07-21T06:50:44.808Z,17.80
2018-07-21T06:53:13.973Z,15.63
2018-07-21T06:55:43.152Z,16.42
2018-07-21T06:58:12.312Z,16.43
2018-07-21T07:00:41.464Z,17.70
2018-07-21T07:03:11.412Z,16.40
2018-07-21T07:05:40.550Z,16.60
2018-07-21T07:08:09.867Z,15.80
2018-07-21T07:10:39.067Z,17.40
2018-07-21T07:13:08.370Z,15.43
2018-07-21T07:15:37.532Z,15.97
2018-07-21T07:18:06.755Z,17.00
2018-07-21T07:20:36.127Z,15.67
2018-07-21T07:23:05.363Z,16.57
2018-07-21T07:25:34.613Z,16.80
2018-07-21T07:28:03.749Z,15.43
2018-07-21T07:30:33.062Z,14.93
2018-07-21T07:33:02.317Z,16.80
2018-07-21T07:35:31.611Z,17.43
2018-07-21T07:38:00.839Z,16.23
2018-07-21T07:40:29.963Z,16.87
2018-07-21T07:42:59.262Z,15.43
2018-07-21T07:45:28.482Z,18.30
2018-07-21T07:47:57.640Z,17.97
2018-07-21T07:50:26.778Z,16.87
2018-07-21T07:52:56.023Z,16.77
2018-07-21T07:55:29.174Z,17.00
2018-07-21T07:57:58.400Z,17.70
2018-07-21T08:00:27.716Z,16.07
2018-07-21T08:02:56.887Z,16.30
2018-07-21T08:05:26.389Z,16.73
2018-07-21T08:07:55.655Z,15.27
2018-07-21T08:10:24.942Z,15.77
2018-07-21T08:12:54.192Z,16.40
2018-07-21T08:15:23.538Z,16.60
2018-07-21T08:17:52.703Z,16.37
2018-07-21T08:20:21.921Z,15.87
2018-07-21T08:22:51.089Z,15.60
2018-07-21T08:25:20.442Z,15.75
2018-07-21T08:27:49.616Z,18.40
2018-07-21T08:30:18.781Z,14.90
2018-07-21T08:32:47.935Z,16.27
2018-07-21T08:35:17.136Z,16.65
2018-07-21T08:37:46.306Z,15.33
2018-07-21T08:40:16.420Z,16.90
2018-07-21T08:42:45.622Z,16.27
2018-07-21T08:45:14.859Z,15.77
2018-07-21T08:47:44.370Z,16.83
2018-07-21T08:50:13.550Z,17.00
2018-07-21T08:52:42.710Z,16.60
2018-07-21T08:55:11.921Z,15.63
2018-07-21T08:57:41.084Z,15.00
2018-07-21T09:00:10.230Z,14.37
2018-07-21T09:02:39.388Z,14.40
2018-07-21T09:05:08.692Z,14.23
2018-07-21T09:07:37.837Z,16.27
2018-07-21T09:10:07.210Z,15.07
2018-07-21T09:12:36.389Z,16.10
2018-07-21T09:15:05.680Z,14.63
2018-07-21T09:17:34.889Z,13.97
2018-07-21T09:20:04.101Z,15.00
2018-07-21T09:22:33.249Z,12.73
2018-07-21T09:25:02.408Z,13.93
2018-07-21T09:27:31.559Z,13.53
2018-07-21T09:30:00.694Z,15.40
2018-07-21T09:32:29.900Z,14.57
2018-07-21T09:34:59.069Z,13.57
2018-07-21T09:37:28.229Z,13.45
2018-07-21T09:39:57.369Z,13.50
2018-07-21T09:42:26.544Z,13.13
2018-07-21T09:44:55.716Z,14.63
2018-07-21T09:47:25.081Z,14.07
2018-07-21T09:49:54.251Z,12.53
2018-07-21T09:52:23.399Z,12.40
2018-07-21T09:54:52.645Z,13.17
2018-07-21T09:57:21.834Z,12.93
2018-07-21T09:59:50.980Z,13.90
2018-07-21T10:02:20.173Z,12.50
2018-07-21T10:04:49.323Z,12.40
2018-07-21T10:07:18.449Z,12.80
2018-07-21T10:09:47.617Z,13.77
2018-07-21T10:12:16.962Z,13.40
2018-07-21T10:14:46.163Z,12.70
2018-07-21T10:17:15.289Z,13.03
2018-07-21T10:19:44.430Z,12.63
2018-07-21T10:22:13.652Z,10.93
2018-07-21T10:24:47.905Z,10.03
2018-07-21T10:27:17.112Z,10.90
2018-07-21T10:29:46.240Z,10.90
2018-07-21T10:32:15.490Z,11.90
2018-07-21T10:34:44.669Z,9.80
2018-07-21T10:37:14.762Z,10.80
2018-07-21T10:39:43.982Z,9.67
2018-07-21T10:42:13.143Z,10.17
2018-07-21T10:44:42.265Z,10.80
2018-07-21T10:47:11.397Z,9.63
2018-07-21T10:49:41.396Z,8.70
2018-07-21T10:52:10.624Z,8.97
2018-07-21T10:54:39.794Z,10.77
2018-07-21T10:57:09.453Z,9.70
2018-07-21T10:59:38.631Z,10.00
2018-07-21T11:02:07.837Z,10.53
2018-07-21T11:04:37.024Z,9.73
2018-07-21T11:07:06.376Z,9.63
2018-07-21T11:09:35.535Z,10.00
2018-07-21T11:12:04.773Z,9.50
2018-07-21T11:14:33.946Z,9.73
2018-07-21T11:17:03.106Z,9.80
2018-07-21T11:19:32.244Z,10.20
2018-07-21T11:22:01.444Z,11.63
2018-07-21T11:24:30.897Z,13.93
2018-07-21T11:27:00.116Z,12.95
2018-07-21T11:29:29.256Z,14.90
2018-07-21T11:31:58.448Z,16.80
2018-07-21T11:34:27.730Z,15.37
2018-07-21T11:36:56.883Z,13.90
2018-07-21T11:39:26.117Z,13.15
2018-07-21T11:41:55.285Z,12.53
2018-07-21T11:44:24.480Z,15.38
2018-07-21T11:46:53.644Z,14.27
2018-07-21T11:49:23.500Z,17.37
2018-07-21T11:51:53.033Z,18.60
2018-07-21T11:54:22.369Z,18.37
2018-07-21T11:56:56.477Z,18.10
2018-07-21T11:59:25.647Z,18.10
2018-07-21T12:01:54.793Z,16.47
2018-07-21T12:04:24.476Z,17.10
2018-07-21T12:06:53.880Z,15.83
2018-07-21T12:09:27.349Z,15.90
2018-07-21T12:11:56.536Z,17.00
2018-07-21T12:14:25.743Z,16.60
2018-07-21T12:16:55.182Z,16.60
2018-07-21T12:19:24.354Z,18.00
2018-07-21T12:21:53.528Z,19.13
2018-07-21T12:24:23.310Z,18.27
2018-07-21T12:26:52.492Z,18.47
2018-07-21T12:29:21.936Z,20.70
2018-07-21T12:31:51.124Z,20.30
2018-07-21T12:34:20.315Z,21.07
2018-07-21T12:36:49.443Z,21.00
2018-07-21T12:39:18.664Z,22.35
2018-07-21T12:41:47.828Z,22.45
2018-07-21T12:44:17.012Z,22.50
2018-07-21T12:46:46.409Z,22.80
2018-07-21T12:49:15.578Z,21.57
2018-07-21T12:51:44.716Z,22.00
2018-07-21T12:54:13.971Z,22.70
2018-07-21T12:56:43.151Z,21.70
2018-07-21T12:59:12.325Z,22.33
2018-07-21T13:01:41.548Z,24.17
2018-07-21T13:04:10.770Z,24.10
2018-07-21T13:06:39.963Z,22.87
2018-07-21T13:09:11.029Z,24.10
2018-07-21T13:11:40.792Z,25.17
2018-07-21T13:14:10.320Z,25.40
2018-07-21T13:16:39.574Z,23.50
2018-07-21T13:19:09.660Z,23.27
2018-07-21T13:21:38.829Z,22.30
2018-07-21T13:24:08.037Z,19.53
2018-07-21T13:26:37.218Z,20.00
2018-07-21T13:29:06.394Z,20.40
2018-07-21T13:31:35.654Z,21.00
2018-07-21T13:34:04.770Z,21.00
2018-07-21T13:36:33.905Z,20.37
2018-07-21T13:39:03.254Z,17.90
2018-07-21T13:41:32.558Z,20.10
2018-07-21T13:44:01.745Z,18.17
2018-07-21T13:46:30.901Z,19.53
2018-07-21T13:49:00.092Z,19.30
2018-07-21T13:51:30.130Z,17.75
2018-07-21T13:54:00.372Z,17.73
2018-07-21T13:56:30.480Z,18.20
2018-07-21T13:58:59.819Z,17.60
2018-07-21T14:01:29.001Z,17.90
2018-07-21T14:03:58.189Z,18.53
2018-07-21T14:06:27.332Z,18.00
2018-07-21T14:08:57.673Z,17.37
2018-07-21T14:11:26.817Z,16.40
2018-07-21T14:13:55.971Z,16.93
2018-07-21T14:16:25.128Z,18.30
2018-07-21T14:18:54.300Z,16.60
2018-07-21T14:21:23.465Z,16.25
2018-07-21T14:23:52.645Z,16.03
2018-07-21T14:26:21.799Z,16.20
2018-07-21T14:28:50.935Z,17.15
2018-07-21T14:31:20.108Z,15.68
2018-07-21T14:33:49.222Z,16.13
2018-07-21T14:36:18.490Z,15.40
2018-07-21T14:38:47.526Z,14.10
2018-07-21T14:41:16.691Z,14.83
2018-07-21T14:43:46.284Z,15.10
2018-07-21T14:46:15.421Z,13.77
2018-07-21T14:48:44.566Z,13.90
2018-07-21T14:51:13.686Z,13.60
2018-07-21T14:53:42.819Z,13.80
2018-07-21T14:56:12.033Z,13.80
2018-07-21T14:58:41.151Z,13.20
2018-07-21T15:01:10.380Z,13.30
2018-07-21T15:03:39.452Z,13.70
2018-07-21T15:06:08.568Z,13.40
2018-07-21T15:08:37.746Z,13.33
2018-07-21T15:11:06.994Z,14.33
2018-07-21T15:13:36.193Z,13.77
2018-07-21T15:16:05.388Z,13.10
2018-07-21T15:18:34.630Z,14.10
2018-07-21T15:21:03.894Z,13.47
2018-07-21T15:23:33.051Z,14.10
2018-07-21T15:26:02.229Z,12.88
2018-07-21T15:28:31.324Z,13.20
2018-07-21T15:31:00.503Z,13.07
2018-07-21T15:33:29.644Z,12.58
2018-07-21T15:35:58.765Z,12.73
2018-07-21T15:38:27.922Z,13.83
2018-07-21T15:40:57.097Z,13.20
2018-07-21T15:43:26.322Z,14.30
2018-07-21T15:45:55.460Z,14.03
2018-07-21T15:48:24.920Z,12.73
2018-07-21T15:50:54.041Z,13.90
2018-07-21T15:53:23.185Z,13.93
2018-07-21T15:55:52.351Z,12.60
2018-07-21T15:58:21.790Z,12.97
2018-07-21T16:00:50.930Z,12.50
2018-07-21T16:03:20.085Z,13.00
2018-07-21T16:05:49.221Z,13.70
2018-07-21T16:08:18.393Z,12.17
2018-07-21T16:10:47.564Z,12.40
2018-07-21T16:13:16.787Z,12.63
2018-07-21T16:15:46.593Z,11.80
2018-07-21T16:18:15.741Z,10.80
2018-07-21T16:20:44.867Z,9.90
2018-07-21T16:23:14.046Z,10.83
2018-07-21T16:25:43.366Z,9.83
2018-07-21T16:28:12.505Z,10.10
2018-07-21T16:30:41.672Z,9.73
2018-07-21T16:33:11.928Z,9.98
2018-07-21T16:35:41.148Z,10.80
2018-07-21T16:38:10.294Z,8.80
2018-07-21T16:40:39.453Z,10.17
2018-07-21T16:43:08.709Z,9.27
2018-07-21T16:45:37.841Z,8.80
2018-07-21T16:48:06.959Z,8.07
2018-07-21T16:50:36.081Z,8.60
2018-07-21T16:53:05.538Z,8.80
2018-07-21T16:55:34.717Z,8.43
2018-07-21T16:58:04.039Z,7.83
2018-07-21T17:00:33.206Z,8.40
2018-07-21T17:03:02.326Z,9.70
2018-07-21T17:05:31.468Z,8.30
2018-07-21T17:08:00.738Z,8.60
2018-07-21T17:10:29.821Z,8.50
2018-07-21T17:12:58.959Z,7.53
2018-07-21T17:15:28.125Z,8.10
2018-07-21T17:17:57.248Z,7.80
2018-07-21T17:20:26.420Z,7.87
2018-07-21T17:22:55.611Z,7.83
2018-07-21T17:25:24.813Z,8.58
2018-07-21T17:27:54.034Z,8.67
2018-07-21T17:30:23.372Z,8.80
2018-07-21T17:32:52.490Z,8.70
2018-07-21T17:35:21.608Z,10.03
2018-07-21T17:37:50.947Z,9.07
2018-07-21T17:40:20.076Z,9.10
2018-07-21T17:42:49.213Z,8.83
2018-07-21T17:45:18.654Z,7.85
2018-07-21T17:47:47.886Z,8.60
2018-07-21T17:50:17.033Z,8.20
2018-07-21T17:52:46.165Z,8.87
2018-07-21T17:55:16.509Z,8.48
2018-07-21T17:57:45.640Z,7.43
2018-07-21T18:00:18.633Z,8.53
2018-07-21T18:02:49.059Z,7.90
2018-07-21T18:05:18.213Z,7.53
2018-07-21T18:07:47.366Z,8.80
2018-07-21T18:10:16.484Z,7.40
2018-07-21T18:12:45.614Z,8.50
2018-07-21T18:15:14.823Z,8.87
2018-07-21T18:17:43.956Z,8.00
2018-07-21T18:20:13.274Z,9.70
2018-07-21T18:22:42.324Z,9.13
2018-07-21T18:25:11.611Z,8.55
2018-07-21T18:27:40.781Z,8.80
2018-07-21T18:30:09.959Z,9.47
2018-07-21T18:32:39.142Z,8.60
2018-07-21T18:35:08.594Z,8.80
2018-07-21T18:37:37.768Z,8.83
2018-07-21T18:40:06.938Z,8.90
2018-07-21T18:42:36.086Z,9.20
2018-07-21T18:45:05.911Z,9.10
2018-07-21T18:47:35.088Z,9.37
2018-07-21T18:50:04.270Z,9.80
2018-07-21T18:52:33.465Z,9.73
2018-07-21T18:55:02.645Z,9.20
2018-07-21T18:57:31.772Z,10.37
2018-07-21T19:00:00.961Z,10.40
2018-07-21T19:02:30.111Z,10.10
2018-07-21T19:04:59.273Z,10.03
2018-07-21T19:07:28.413Z,9.95
2018-07-21T19:09:57.548Z,9.47
2018-07-21T19:12:31.908Z,10.00
2018-07-21T19:15:02.676Z,10.13
2018-07-21T19:17:31.889Z,10.90
2018-07-21T19:20:06.320Z,11.40
2018-07-21T19:22:35.488Z,13.10
2018-07-21T19:25:09.911Z,12.77
2018-07-21T19:27:39.173Z,12.77
2018-07-21T19:30:08.370Z,13.73
2018-07-21T19:32:42.833Z,13.53
2018-07-21T19:35:11.982Z,13.30
2018-07-21T19:37:46.461Z,13.63
2018-07-21T19:40:15.839Z,13.40
2018-07-21T19:42:45.018Z,13.77
2018-07-21T19:45:14.724Z,14.47
2018-07-21T19:47:44.098Z,14.57
2018-07-21T19:50:13.269Z,14.40
2018-07-21T19:52:42.481Z,14.17
2018-07-21T19:55:11.804Z,13.50
2018-07-21T19:57:40.926Z,13.23
2018-07-21T20:00:10.141Z,14.50
2018-07-21T20:02:39.272Z,12.17
2018-07-21T20:05:08.495Z,12.60
2018-07-21T20:07:37.766Z,13.30
2018-07-21T20:10:07.061Z,13.37
2018-07-21T20:12:36.219Z,14.57
2018-07-21T20:15:05.511Z,13.63
2018-07-21T20:17:34.714Z,13.00
2018-07-21T20:20:03.847Z,14.20
2018-07-21T20:22:33.005Z,13.97
2018-07-21T20:25:02.158Z,14.30
2018-07-21T20:27:31.291Z,14.17
2018-07-21T20:30:01.289Z,13.87
2018-07-21T20:32:30.461Z,14.57
2018-07-21T20:34:59.685Z,12.40
2018-07-21T20:37:28.824Z,12.47
2018-07-21T20:39:57.929Z,13.47
2018-07-21T20:42:27.113Z,14.57
2018-07-21T20:44:56.291Z,13.00
2018-07-21T20:47:25.450Z,13.10
2018-07-21T20:49:54.618Z,11.90
2018-07-21T20:52:23.781Z,14.93
2018-07-21T20:54:52.973Z,15.07
2018-07-21T20:57:22.124Z,16.30
2018-07-21T20:59:51.295Z,16.07
2018-07-21T21:02:20.443Z,13.70
2018-07-21T21:04:49.575Z,15.50
2018-07-21T21:07:18.717Z,15.30
2018-07-21T21:09:47.856Z,14.73
2018-07-21T21:12:17.017Z,15.00
2018-07-21T21:14:46.197Z,14.23
2018-07-21T21:17:15.341Z,15.05
2018-07-21T21:19:44.466Z,15.20
2018-07-21T21:22:13.810Z,16.90
2018-07-21T21:24:43.029Z,16.20
2018-07-21T21:27:12.178Z,14.50
2018-07-21T21:29:41.324Z,16.10
2018-07-21T21:32:10.493Z,15.00
2018-07-21T21:34:39.984Z,14.50
2018-07-21T21:37:09.353Z,15.73
2018-07-21T21:39:38.509Z,16.77
2018-07-21T21:42:07.727Z,16.73
2018-07-21T21:44:36.812Z,17.37
2018-07-21T21:47:06.028Z,16.23
2018-07-21T21:49:35.160Z,16.48
2018-07-21T21:52:04.345Z,16.40
2018-07-21T21:54:33.669Z,16.87
2018-07-21T21:57:02.834Z,16.80
2018-07-21T21:59:31.985Z,18.00
2018-07-21T22:02:01.114Z,18.50
2018-07-21T22:04:30.327Z,18.73
2018-07-21T22:06:59.476Z,17.83
2018-07-21T22:09:28.652Z,17.75
2018-07-21T22:11:57.838Z,17.00
2018-07-21T22:14:27.063Z,17.27
2018-07-21T22:16:56.229Z,18.13
2018-07-21T22:19:25.362Z,17.80
2018-07-21T22:21:54.578Z,19.60
2018-07-21T22:24:23.728Z,19.27
2018-07-21T22:26:52.864Z,18.93
2018-07-21T22:29:22.105Z,19.42
2018-07-21T22:31:51.290Z,19.27
2018-07-21T22:34:20.440Z,17.57
2018-07-21T22:36:49.644Z,18.77
2018-07-21T22:39:18.781Z,18.23
2018-07-21T22:41:47.937Z,19.03
2018-07-21T22:44:17.158Z,18.70
2018-07-21T22:46:46.280Z,20.03
2018-07-21T22:49:15.422Z,20.25
2018-07-21T22:51:44.609Z,20.17
2018-07-21T22:54:13.757Z,20.67
2018-07-21T22:56:42.890Z,21.07
2018-07-21T22:59:12.072Z,19.60
2018-07-21T23:01:42.044Z,20.60
2018-07-21T23:04:11.163Z,18.40
2018-07-21T23:06:40.383Z,18.97
2018-07-21T23:09:10.070Z,18.60
2018-07-21T23:11:39.422Z,16.33
2018-07-21T23:14:09.070Z,19.50
2018-07-21T23:16:38.233Z,18.87
2018-07-21T23:19:07.671Z,19.40
2018-07-21T23:21:36.762Z,19.23
2018-07-21T23:24:06.118Z,20.23
2018-07-21T23:26:35.287Z,18.60
2018-07-21T23:29:04.508Z,17.77
2018-07-21T23:31:33.797Z,18.20
2018-07-21T23:34:03.752Z,16.70
2018-07-21T23:36:32.929Z,14.70
2018-07-21T23:39:02.418Z,15.63
2018-07-21T23:41:31.548Z,15.60
2018-07-21T23:44:00.713Z,15.87
2018-07-21T23:46:29.929Z,16.67
2018-07-21T23:48:59.089Z,16.23
2018-07-21T23:51:28.293Z,16.30
2018-07-21T23:53:57.494Z,16.10
2018-07-21T23:56:26.652Z,15.97
2018-07-21T23:58:55.845Z,16.00
